createdAt,value
2023-01-26T00:02:04.299Z,6.90
2023-01-26T00:58:13.696Z,6.00
2023-01-26T01:00:42.285Z,6.00
2023-01-26T01:03:11.942Z,6.47
2023-01-26T01:05:40.265Z,6.65
2023-01-26T01:08:08.205Z,6.18
2023-01-26T01:10:36.479Z,6.07
2023-01-26T01:13:04.422Z,6.97
2023-01-26T01:15:33.758Z,6.55
2023-01-26T01:18:01.706Z,6.22
2023-01-26T01:20:31.352Z,6.18
2023-01-26T01:22:59.282Z,5.60
2023-01-26T01:25:29.927Z,6.72
2023-01-26T01:27:58.029Z,6.38
2023-01-26T01:30:26.380Z,6.22
2023-01-26T01:32:54.390Z,6.25
2023-01-26T01:35:23.910Z,6.15
2023-01-26T01:37:52.121Z,6.95
2023-01-26T01:40:20.438Z,6.30
2023-01-26T01:42:49.643Z,7.13
2023-01-26T01:45:27.005Z,6.38
2023-01-26T01:47:59.922Z,6.57
2023-01-26T01:50:31.566Z,6.55
2023-01-26T01:52:59.688Z,5.53
2023-01-26T01:55:28.092Z,6.28
2023-01-26T01:58:00.395Z,6.10
2023-01-26T02:00:29.034Z,5.60
2023-01-26T02:03:16.840Z,6.00
2023-01-26T02:06:19.454Z,6.00
2023-01-26T02:08:51.387Z,5.72
2023-01-26T02:11:25.775Z,5.43
2023-01-26T02:13:54.812Z,6.35
2023-01-26T02:16:24.382Z,6.70
2023-01-26T02:18:54.353Z,6.82
2023-01-26T02:21:24.676Z,7.10
2023-01-26T02:24:17.865Z,6.75
2023-01-26T02:26:47.029Z,5.97
2023-01-26T02:29:15.178Z,6.13
2023-01-26T02:31:46.545Z,6.20
2023-01-26T02:34:14.900Z,5.80
2023-01-26T02:36:43.347Z,6.70
2023-01-26T02:39:33.107Z,5.72
2023-01-26T02:42:19.913Z,6.75
2023-01-26T02:44:47.967Z,6.38
2023-01-26T02:47:18.628Z,6.40
2023-01-26T02:49:48.116Z,7.10
2023-01-26T02:52:25.724Z,5.68
2023-01-26T02:55:18.473Z,5.97
2023-01-26T02:57:47.277Z,5.63
2023-01-26T03:00:18.390Z,5.97
2023-01-26T03:02:48.448Z,5.95
2023-01-26T03:05:17.043Z,5.97
2023-01-26T03:07:45.909Z,6.00
2023-01-26T03:10:14.308Z,6.47
2023-01-26T03:12:42.655Z,5.97
2023-01-26T03:15:29.746Z,6.07
2023-01-26T03:18:24.491Z,6.25
2023-01-26T03:23:58.413Z,6.03
2023-01-26T03:26:46.944Z,5.50
2023-01-26T03:29:16.417Z,5.68
2023-01-26T03:31:45.019Z,5.82
2023-01-26T03:34:13.395Z,6.25
2023-01-26T03:36:42.260Z,5.97
2023-01-26T03:39:35.230Z,5.70
2023-01-26T03:42:23.981Z,5.05
2023-01-26T03:45:10.614Z,5.47
2023-01-26T03:48:01.197Z,6.10
2023-01-26T03:50:50.578Z,4.80
2023-01-26T03:53:41.391Z,5.00
2023-01-26T03:56:18.588Z,5.68
2023-01-26T03:58:57.786Z,6.05
2023-01-26T04:01:29.458Z,5.93
2023-01-26T04:04:18.027Z,5.75
2023-01-26T04:07:08.375Z,5.10
2023-01-26T04:09:41.835Z,5.05
2023-01-26T04:12:12.212Z,5.93
2023-01-26T04:15:08.487Z,4.95
2023-01-26T04:17:55.289Z,5.97
2023-01-26T04:20:41.514Z,4.97
2023-01-26T04:23:20.827Z,6.03
2023-01-26T04:25:51.075Z,5.85
2023-01-26T04:28:19.702Z,5.88
2023-01-26T04:30:49.741Z,5.90
2023-01-26T04:33:18.006Z,6.18
2023-01-26T04:35:45.905Z,5.95
2023-01-26T04:38:14.208Z,6.05
2023-01-26T04:40:43.393Z,5.55
2023-01-26T04:43:12.089Z,6.03
2023-01-26T04:45:40.124Z,5.80
2023-01-26T04:48:09.185Z,5.53
2023-01-26T04:50:37.148Z,5.57
2023-01-26T04:53:06.272Z,6.20
2023-01-26T04:55:34.137Z,5.18
2023-01-26T04:58:03.874Z,5.45
2023-01-26T05:00:32.610Z,5.57
2023-01-26T05:03:02.636Z,6.07
2023-01-26T05:05:30.773Z,5.88
2023-01-26T05:07:58.996Z,7.55
2023-01-26T05:10:29.737Z,6.95
2023-01-26T05:13:16.731Z,6.20
2023-01-26T05:16:06.201Z,13.43
2023-01-26T05:18:47.892Z,14.98
2023-01-26T05:21:36.124Z,12.23
2023-01-26T05:24:04.801Z,7.78
2023-01-26T05:27:15.786Z,6.85
2023-01-26T05:29:45.235Z,6.03
2023-01-26T05:32:13.526Z,5.38
2023-01-26T05:34:42.664Z,5.53
2023-01-26T05:37:13.641Z,5.70
2023-01-26T05:39:45.449Z,5.90
2023-01-26T05:42:14.042Z,6.07
2023-01-26T05:45:09.018Z,6.25
2023-01-26T05:47:39.411Z,6.35
2023-01-26T05:50:08.858Z,9.43
2023-01-26T05:52:37.205Z,5.93
2023-01-26T05:55:07.769Z,6.28
2023-01-26T05:57:36.676Z,6.57
2023-01-26T06:00:10.494Z,6.00
2023-01-26T06:02:55.437Z,6.25
2023-01-26T06:05:23.866Z,6.07
2023-01-26T06:07:53.135Z,5.60
2023-01-26T06:10:28.070Z,5.40
2023-01-26T06:13:14.646Z,6.60
2023-01-26T06:15:49.416Z,6.68
2023-01-26T06:18:17.536Z,6.72
2023-01-26T06:20:51.767Z,7.35
2023-01-26T06:23:19.764Z,6.55
2023-01-26T06:25:49.106Z,5.75
2023-01-26T06:28:17.025Z,6.05
2023-01-26T06:30:46.145Z,6.82
2023-01-26T06:33:15.739Z,6.20
2023-01-26T06:35:44.155Z,6.40
2023-01-26T06:38:15.737Z,5.95
2023-01-26T06:40:46.548Z,6.57
2023-01-26T06:43:15.697Z,7.05
2023-01-26T06:45:44.097Z,6.90
2023-01-26T06:48:12.218Z,5.82
2023-01-26T06:50:40.649Z,9.98
2023-01-26T06:53:34.247Z,6.03
2023-01-26T06:56:25.348Z,7.00
2023-01-26T06:59:12.055Z,5.65
2023-01-26T07:02:00.589Z,6.10
2023-01-26T07:04:28.553Z,6.60
2023-01-26T07:06:58.189Z,6.60
2023-01-26T07:09:26.117Z,6.88
2023-01-26T07:11:55.290Z,6.60
2023-01-26T07:14:23.229Z,7.10
2023-01-26T07:16:51.525Z,6.07
2023-01-26T07:19:20.080Z,6.15
2023-01-26T07:21:49.427Z,6.30
2023-01-26T07:24:17.334Z,7.72
2023-01-26T07:26:45.616Z,5.82
2023-01-26T07:29:13.680Z,7.32
2023-01-26T07:31:44.794Z,6.85
2023-01-26T07:34:13.120Z,6.10
2023-01-26T07:36:41.498Z,6.63
2023-01-26T07:39:09.517Z,7.13
2023-01-26T07:41:37.829Z,6.40
2023-01-26T07:44:24.996Z,6.53
2023-01-26T07:46:54.843Z,6.70
2023-01-26T07:49:22.849Z,6.45
2023-01-26T07:51:53.548Z,7.20
2023-01-26T07:54:21.840Z,7.18
2023-01-26T07:56:54.809Z,7.72
2023-01-26T07:59:23.351Z,7.78
2023-01-26T08:01:52.412Z,6.75
2023-01-26T08:04:20.550Z,7.00
2023-01-26T08:06:52.086Z,6.55
2023-01-26T08:09:20.142Z,7.22
2023-01-26T08:11:48.499Z,6.60
2023-01-26T08:14:16.530Z,7.82
2023-01-26T08:16:46.705Z,7.63
2023-01-26T08:19:14.829Z,7.78
2023-01-26T08:21:43.141Z,7.97
2023-01-26T08:24:14.147Z,8.70
2023-01-26T08:26:43.672Z,8.63
2023-01-26T08:29:11.661Z,8.00
2023-01-26T08:31:39.931Z,8.88
2023-01-26T08:34:07.907Z,8.70
2023-01-26T08:36:36.193Z,8.90
2023-01-26T08:39:04.597Z,9.27
2023-01-26T08:41:34.439Z,8.75
2023-01-26T08:44:02.633Z,8.75
2023-01-26T08:46:31.018Z,8.88
2023-01-26T08:49:00.531Z,8.48
2023-01-26T08:51:29.280Z,8.52
2023-01-26T08:53:57.266Z,9.65
2023-01-26T08:56:25.660Z,9.25
2023-01-26T12:59:46.682Z,10.77
2023-01-26T13:02:17.226Z,10.77
2023-01-26T13:04:48.900Z,11.75
2023-01-26T13:07:38.900Z,10.55
2023-01-26T13:10:19.725Z,10.32
2023-01-26T13:12:49.731Z,10.45
2023-01-26T13:15:20.377Z,10.50
2023-01-26T13:18:00.322Z,11.23
2023-01-26T13:20:40.646Z,12.05
2023-01-26T13:23:39.326Z,10.80
2023-01-26T13:26:17.789Z,11.23
2023-01-26T13:28:48.182Z,10.68
2023-01-26T13:31:34.584Z,10.85
2023-01-26T13:34:09.110Z,10.73
2023-01-26T13:36:40.287Z,10.68
2023-01-26T13:39:28.919Z,10.95
2023-01-26T13:41:57.653Z,11.80
2023-01-26T13:44:48.926Z,10.27
2023-01-26T13:47:24.779Z,10.30
2023-01-26T13:49:53.211Z,11.32
2023-01-26T13:52:24.578Z,10.60
2023-01-26T13:54:58.244Z,10.68
2023-01-26T13:57:28.761Z,10.88
2023-01-26T14:00:00.688Z,11.00
2023-01-26T14:02:31.649Z,12.88
2023-01-26T14:05:02.337Z,11.35
2023-01-26T14:07:44.841Z,10.48
2023-01-26T14:10:22.655Z,12.60
2023-01-26T14:12:56.031Z,11.10
2023-01-26T14:18:03.070Z,9.10
2023-01-26T14:20:35.968Z,11.30
2023-01-26T14:23:19.071Z,10.25
2023-01-26T14:26:21.264Z,9.60
2023-01-26T14:28:49.260Z,12.63
2023-01-26T14:31:24.414Z,10.95
2023-01-26T14:33:57.566Z,12.85
2023-01-26T14:36:29.624Z,10.82
2023-01-26T14:38:57.598Z,11.57
2023-01-26T14:41:30.394Z,9.95
2023-01-26T14:44:02.265Z,10.32
2023-01-26T14:46:58.231Z,10.93
2023-01-26T14:50:00.275Z,10.82
2023-01-26T14:52:34.272Z,13.77
2023-01-26T14:55:12.938Z,11.77
2023-01-26T14:57:42.395Z,13.02
2023-01-26T15:00:26.171Z,12.05
2023-01-26T15:05:36.034Z,11.25
2023-01-26T15:08:24.915Z,12.27
2023-01-26T15:11:19.608Z,11.32
2023-01-26T15:13:53.756Z,11.73
2023-01-26T15:19:03.382Z,12.00
2023-01-26T15:21:44.494Z,11.48
2023-01-26T15:24:15.450Z,11.98
2023-01-26T15:26:44.180Z,11.93
2023-01-26T15:29:26.226Z,12.88
2023-01-26T15:31:56.639Z,11.93
2023-01-26T15:34:31.915Z,13.70
2023-01-26T15:37:01.447Z,13.10
2023-01-26T15:39:30.760Z,13.18
2023-01-26T15:42:15.647Z,14.93
2023-01-26T15:44:43.868Z,14.07
2023-01-26T15:47:14.234Z,12.27
2023-01-26T15:49:42.957Z,13.35
2023-01-26T15:52:20.484Z,12.70
2023-01-26T15:54:48.966Z,13.30
2023-01-26T15:57:17.093Z,14.20
2023-01-26T15:59:45.357Z,12.95
2023-01-26T16:02:16.142Z,12.43
2023-01-26T16:04:46.288Z,13.75
2023-01-26T16:07:18.716Z,12.55
2023-01-26T16:09:49.295Z,16.17
2023-01-26T16:12:31.230Z,13.05
2023-01-26T16:15:00.907Z,14.15
2023-01-26T16:17:29.160Z,12.45
2023-01-26T16:19:57.705Z,12.15
2023-01-26T16:22:25.720Z,13.48
2023-01-26T16:24:53.966Z,11.50
2023-01-26T16:27:22.727Z,12.27
2023-01-26T16:29:50.988Z,12.48
2023-01-26T16:32:28.960Z,11.88
2023-01-26T16:34:57.255Z,12.45
2023-01-26T16:37:25.317Z,14.18
2023-01-26T16:39:53.719Z,12.48
2023-01-26T16:42:22.020Z,13.75
2023-01-26T16:44:50.557Z,15.07
2023-01-26T16:47:18.471Z,13.02
2023-01-26T16:49:46.667Z,12.88
2023-01-26T16:52:14.720Z,12.50
2023-01-26T16:54:43.260Z,11.85
2023-01-26T16:57:11.706Z,12.85
2023-01-26T16:59:40.335Z,15.55
2023-01-26T17:02:25.219Z,19.10
2023-01-26T17:04:53.533Z,16.33
2023-01-26T17:07:21.671Z,12.82
2023-01-26T17:09:51.094Z,11.25
2023-01-26T17:12:19.231Z,13.15
2023-01-26T17:14:47.621Z,31.42
2023-01-26T17:17:15.655Z,20.42
2023-01-26T17:19:44.008Z,24.33
2023-01-26T17:22:11.916Z,18.15
2023-01-26T17:24:41.498Z,15.13
2023-01-26T17:27:12.894Z,13.80
2023-01-26T17:29:42.487Z,13.75
2023-01-26T17:32:10.684Z,16.75
2023-01-26T17:34:39.017Z,14.27
2023-01-26T17:37:07.237Z,14.20
2023-01-26T17:39:35.708Z,14.15
2023-01-26T17:42:03.976Z,12.48
2023-01-26T17:44:32.247Z,13.75
2023-01-26T17:47:00.221Z,12.55
2023-01-26T17:49:28.730Z,14.40
2023-01-26T17:51:56.798Z,14.18
2023-01-26T17:54:25.434Z,13.57
2023-01-26T17:56:55.186Z,13.57
2023-01-26T17:59:23.587Z,13.38
2023-01-26T18:01:52.662Z,13.48
2023-01-26T18:04:21.108Z,12.13
2023-01-26T18:06:49.056Z,13.30
2023-01-26T18:09:18.446Z,13.93
2023-01-26T18:11:46.564Z,13.05
2023-01-26T18:14:14.859Z,13.55
2023-01-26T18:16:42.925Z,11.93
2023-01-26T18:19:11.375Z,12.40
2023-01-26T18:21:39.340Z,11.43
2023-01-26T18:24:07.834Z,11.80
2023-01-26T18:26:38.038Z,15.02
2023-01-26T18:29:07.086Z,15.98
2023-01-26T18:31:39.770Z,14.18
2023-01-26T18:34:10.784Z,12.05
2023-01-26T18:36:38.799Z,13.15
2023-01-26T18:39:13.049Z,13.50
2023-01-26T18:41:43.556Z,17.00
2023-01-26T18:44:12.167Z,15.70
2023-01-26T18:46:40.157Z,15.55
2023-01-26T18:49:10.367Z,15.75
2023-01-26T18:51:38.442Z,14.82
2023-01-26T18:54:08.159Z,13.32
2023-01-26T18:56:36.451Z,12.65
2023-01-26T18:59:04.751Z,8.98
2023-01-26T19:01:32.748Z,9.43
2023-01-26T19:04:04.222Z,8.02
2023-01-26T19:06:36.429Z,7.68
2023-01-26T19:09:06.910Z,7.85
2023-01-26T19:11:39.210Z,7.45
2023-01-26T19:14:08.578Z,7.03
2023-01-26T19:16:37.159Z,7.50
2023-01-26T19:19:06.658Z,7.53
2023-01-26T19:21:34.503Z,7.25
2023-01-26T19:24:06.115Z,7.78
2023-01-26T19:26:34.608Z,8.98
2023-01-26T19:29:03.284Z,9.13
2023-01-26T19:31:32.313Z,8.25
2023-01-26T19:34:03.125Z,8.02
2023-01-26T19:36:33.498Z,8.25
2023-01-26T19:39:04.529Z,6.78
2023-01-26T19:41:33.129Z,7.57
2023-01-26T19:44:05.043Z,7.53
2023-01-26T19:46:34.649Z,7.93
2023-01-26T19:49:03.048Z,7.55
2023-01-26T19:51:31.440Z,7.85
2023-01-26T19:54:01.847Z,7.70
2023-01-26T19:56:32.599Z,8.68
2023-01-26T19:59:05.267Z,7.85
2023-01-26T20:01:34.497Z,8.85
2023-01-26T20:04:06.747Z,9.98
2023-01-26T20:06:36.158Z,9.73
2023-01-26T20:09:07.769Z,11.43
2023-01-26T20:11:36.043Z,10.27
2023-01-26T20:14:08.981Z,11.23
2023-01-26T20:16:37.589Z,10.65
2023-01-26T20:19:06.294Z,9.00
2023-01-26T20:21:35.760Z,9.60
2023-01-26T20:24:06.053Z,11.25
2023-01-26T20:26:35.477Z,10.07
2023-01-26T20:29:04.905Z,10.35
2023-01-26T20:31:33.598Z,11.48
2023-01-26T20:34:02.397Z,11.73
2023-01-26T20:36:31.623Z,11.05
2023-01-26T20:39:01.273Z,10.00
2023-01-26T20:41:31.089Z,10.70
2023-01-26T20:44:03.840Z,11.23
2023-01-26T20:46:40.896Z,11.05
2023-01-26T20:49:13.234Z,13.82
2023-01-26T20:51:43.047Z,14.95
2023-01-26T20:54:13.899Z,11.90
2023-01-26T20:56:42.406Z,11.55
2023-01-26T20:59:12.621Z,9.40
2023-01-26T21:01:40.597Z,9.77
2023-01-26T21:04:09.019Z,9.63
2023-01-26T21:06:37.675Z,10.43
2023-01-26T21:09:06.081Z,9.07
2023-01-26T21:11:37.649Z,9.00
2023-01-26T21:14:06.335Z,9.13
2023-01-26T21:16:36.300Z,9.13
2023-01-26T21:19:05.872Z,9.73
2023-01-26T21:21:33.827Z,9.27
2023-01-26T21:24:02.138Z,9.65
2023-01-26T21:26:30.222Z,9.50
2023-01-26T21:29:00.237Z,9.95
2023-01-26T21:31:32.815Z,9.68
2023-01-26T21:34:01.575Z,9.77
2023-01-26T21:36:32.217Z,10.05
2023-01-26T21:39:01.777Z,9.20
2023-01-26T21:41:52.433Z,10.45
2023-01-26T21:44:32.550Z,9.95
2023-01-26T21:47:04.107Z,11.48
2023-01-26T21:49:32.478Z,11.02
2023-01-26T21:52:35.918Z,10.02
2023-01-26T21:55:04.428Z,12.67
2023-01-26T21:57:51.006Z,12.02
2023-01-26T22:00:19.721Z,11.13
2023-01-26T22:02:47.885Z,11.45
2023-01-26T22:05:16.882Z,12.32
2023-01-26T22:07:46.754Z,12.63
2023-01-26T22:10:15.534Z,12.45
2023-01-26T22:12:43.911Z,13.75
2023-01-26T22:15:12.193Z,13.60
2023-01-26T22:17:40.556Z,13.38
2023-01-26T22:20:09.891Z,14.07
2023-01-26T22:22:38.295Z,12.27
2023-01-26T22:25:06.591Z,13.27
2023-01-26T22:27:35.080Z,12.95
2023-01-26T22:30:03.288Z,12.65
2023-01-26T22:32:31.812Z,13.80
2023-01-26T22:34:59.847Z,11.90
2023-01-26T22:37:29.366Z,12.73
2023-01-26T22:39:57.278Z,12.88
2023-01-26T22:42:25.574Z,14.93
2023-01-26T22:44:53.465Z,12.15
2023-01-26T22:47:22.715Z,10.80
2023-01-26T22:49:51.138Z,11.27
2023-01-26T22:52:19.377Z,10.52
2023-01-26T22:54:47.276Z,11.02
2023-01-26T22:57:15.715Z,9.18
2023-01-26T22:59:43.608Z,8.68
2023-01-26T23:02:11.995Z,10.32
2023-01-26T23:04:39.922Z,9.45
2023-01-26T23:07:08.224Z,9.77
2023-01-26T23:09:36.216Z,8.77
2023-01-26T23:12:04.751Z,8.95
2023-01-26T23:14:34.333Z,8.15
2023-01-26T23:17:02.644Z,9.23
2023-01-26T23:19:30.633Z,9.85
2023-01-26T23:21:58.846Z,9.35
2023-01-26T23:24:26.834Z,8.88
2023-01-26T23:26:55.095Z,8.80
2023-01-26T23:29:22.993Z,9.18
2023-01-26T23:31:51.447Z,9.38
2023-01-26T23:34:19.416Z,9.52
2023-01-26T23:36:47.606Z,8.98
2023-01-26T23:39:15.874Z,9.07
2023-01-26T23:41:45.411Z,9.15
2023-01-26T23:44:13.392Z,8.75
2023-01-26T23:46:41.666Z,8.77
2023-01-26T23:49:09.717Z,9.15
2023-01-26T23:51:39.058Z,8.80
2023-01-26T23:54:07.066Z,9.63
2023-01-26T23:56:35.403Z,8.43
2023-01-26T23:59:03.387Z,9.05
